Time;durP1;ratioP1;P1;durP2;ratioP2;P2;SDS_P1;SDS_P2;PMS_P1;PMS_P2;Temp;Humidity;BMP_temperature;BMP_pressure;BME280_temperature;BME280_humidity;BME280_pressure;Samples;Min_cycle;Max_cycle;Signal;HPM_P1;HPM_P2
2023/10/03 00:01:35;;;;;;;15.07;8.25;;;;;;;13.08;nan;95987.59;5049920;28;20207;-68
2023/10/03 00:04:02;;;;;;;11.85;8.60;;;;;;;12.90;nan;95992.31;5049377;28;20198;-67
2023/10/03 00:06:33;;;;;;;9.60;8.18;;;;;;;13.00;nan;95992.06;5050124;28;20198;-68
2023/10/03 00:09:01;;;;;;;15.32;8.75;;;;;;;12.94;nan;96000.72;5049699;28;20206;-68
2023/10/03 00:11:28;;;;;;;15.30;9.32;;;;;;;12.96;nan;96001.53;5049911;28;20211;-66
2023/10/03 00:13:54;;;;;;;9.25;7.50;;;;;;;12.81;nan;95995.16;5047258;28;20635;-68
2023/10/03 00:16:22;;;;;;;12.73;8.55;;;;;;;12.68;nan;95991.25;5049166;28;20258;-66
2023/10/03 00:18:49;;;;;;;23.00;7.88;;;;;;;12.73;nan;95994.50;5038938;28;20208;-66
2023/10/03 00:21:17;;;;;;;16.52;8.40;;;;;;;12.67;nan;95991.28;5048227;28;20514;-67
2023/10/03 00:23:45;;;;;;;11.02;8.48;;;;;;;12.86;nan;95985.66;5047201;28;20199;-67
2023/10/03 00:26:17;;;;;;;9.82;8.00;;;;;;;12.69;nan;95998.00;5048104;28;20224;-65
2023/10/03 00:28:44;;;;;;;9.07;7.38;;;;;;;12.73;nan;95991.94;5047436;28;20206;-66
2023/10/03 00:31:13;;;;;;;26.10;8.65;;;;;;;12.68;nan;95996.34;5048252;28;20324;-65
2023/10/03 00:33:41;;;;;;;8.27;6.60;;;;;;;12.59;nan;95994.88;5047537;28;20203;-65
2023/10/03 00:36:16;;;;;;;15.20;8.00;;;;;;;12.44;nan;95991.88;5047892;28;20304;-65
2023/10/03 00:38:45;;;;;;;9.43;6.63;;;;;;;12.37;nan;95992.94;5047848;28;20206;-65
2023/10/03 00:41:12;;;;;;;7.90;6.20;;;;;;;12.38;nan;95986.94;5050899;28;20261;-67
2023/10/03 00:43:51;;;;;;;13.07;7.55;;;;;;;12.41;nan;95991.97;5053303;28;20194;-65
2023/10/03 00:46:18;;;;;;;10.20;6.97;;;;;;;12.51;nan;95984.03;5053206;28;20198;-66
2023/10/03 00:48:47;;;;;;;11.63;6.82;;;;;;;12.49;nan;95990.06;5053414;28;20289;-66
2023/10/03 00:51:14;;;;;;;7.57;6.75;;;;;;;12.48;nan;95989.22;5053269;28;20202;-67
2023/10/03 00:53:42;;;;;;;7.45;6.25;;;;;;;12.46;nan;95985.88;5052908;28;20199;-66
2023/10/03 00:56:11;;;;;;;8.07;6.50;;;;;;;12.47;nan;95986.72;5052985;28;20241;-66
2023/10/03 00:58:38;;;;;;;14.05;7.47;;;;;;;12.53;nan;95991.66;5052813;28;20210;-66
2023/10/03 01:01:04;;;;;;;8.05;7.20;;;;;;;12.66;nan;95990.44;5053246;28;20203;-63
2023/10/03 01:03:32;;;;;;;11.73;7.18;;;;;;;12.74;nan;95993.63;5052834;28;20226;-66
2023/10/03 01:06:04;;;;;;;18.52;7.57;;;;;;;12.66;nan;95998.09;5053495;28;20202;-67
2023/10/03 01:08:31;;;;;;;10.15;6.88;;;;;;;12.38;nan;95997.97;5064784;28;20213;-66
2023/10/03 01:10:59;;;;;;;9.63;7.13;;;;;;;12.37;nan;95992.94;5052964;28;20676;-66
2023/10/03 01:13:29;;;;;;;9.80;7.32;;;;;;;12.34;nan;95998.13;5052834;28;20199;-67
2023/10/03 01:15:56;;;;;;;10.48;6.85;;;;;;;12.32;nan;95998.16;5042563;28;20227;-66
2023/10/03 01:18:26;;;;;;;9.10;7.20;;;;;;;12.35;nan;95995.53;5052442;28;20700;-65
2023/10/03 01:20:55;;;;;;;11.80;7.22;;;;;;;12.35;nan;95997.25;5052480;28;20203;-66
2023/10/03 01:23:28;;;;;;;11.98;7.15;;;;;;;12.30;nan;95991.41;5052515;28;20214;-65
2023/10/03 01:25:55;;;;;;;12.18;7.45;;;;;;;12.25;nan;96001.72;5052499;28;20293;-67
2023/10/03 01:28:22;;;;;;;9.73;7.25;;;;;;;12.13;nan;95990.09;5051772;28;20227;-66
2023/10/03 01:30:51;;;;;;;9.48;6.72;;;;;;;12.17;nan;95989.16;5052146;28;20569;-66
2023/10/03 01:33:18;;;;;;;10.90;6.63;;;;;;;12.07;nan;95992.84;5052684;28;20203;-66
2023/10/03 01:35:44;;;;;;;11.60;8.10;;;;;;;12.12;nan;95985.91;5052103;28;20711;-66
2023/10/03 01:38:14;;;;;;;11.52;8.48;;;;;;;12.10;nan;95987.66;5052489;28;20631;-67
2023/10/03 01:40:42;;;;;;;13.52;7.72;;;;;;;12.22;nan;95994.16;5052558;28;20207;-66
2023/10/03 01:43:09;;;;;;;7.80;6.90;;;;;;;12.22;nan;95986.50;5052083;28;20195;-67
2023/10/03 01:45:36;;;;;;;12.23;7.30;;;;;;;12.25;nan;95991.53;5052221;28;20203;-66
2023/10/03 01:48:05;;;;;;;12.85;7.40;;;;;;;12.31;nan;95990.53;5051866;28;20734;-65
2023/10/03 01:50:33;;;;;;;11.23;7.32;;;;;;;12.13;nan;95976.53;5051766;28;20211;-66
2023/10/03 01:53:00;;;;;;;13.65;7.45;;;;;;;12.11;nan;95989.34;5052303;28;20221;-64
2023/10/03 01:55:27;;;;;;;9.13;7.25;;;;;;;12.11;nan;95983.41;5051966;28;20223;-65
2023/10/03 01:57:58;;;;;;;11.25;6.53;;;;;;;11.98;nan;95987.94;5051919;28;20626;-65
2023/10/03 02:00:26;;;;;;;10.30;7.82;;;;;;;11.93;nan;95992.31;5051373;28;20206;-65
2023/10/03 02:02:53;;;;;;;10.98;7.38;;;;;;;11.81;nan;95990.06;5052327;28;20211;-66
2023/10/03 02:05:23;;;;;;;7.93;7.07;;;;;;;11.76;nan;95982.53;5051447;28;20205;-65
2023/10/03 02:07:51;;;;;;;9.80;7.57;;;;;;;11.80;nan;95983.31;5052134;28;20268;-66
2023/10/03 02:10:18;;;;;;;8.63;7.07;;;;;;;11.87;nan;95967.00;5051390;28;20207;-66
2023/10/03 02:12:49;;;;;;;11.50;7.82;;;;;;;11.83;nan;95973.03;5051565;28;20203;-65
2023/10/03 02:15:23;;;;;;;12.13;7.38;;;;;;;11.63;nan;95960.72;5051599;28;20310;-65
2023/10/03 02:17:50;;;;;;;13.68;7.80;;;;;;;11.70;nan;95958.88;5051217;28;20241;-66
2023/10/03 02:20:20;;;;;;;11.57;7.93;;;;;;;11.88;nan;95950.81;5050050;28;20653;-64
2023/10/03 02:22:53;;;;;;;12.77;8.07;;;;;;;11.73;nan;95952.00;5049959;28;20210;-65
2023/10/03 02:25:22;;;;;;;10.10;8.13;;;;;;;11.67;nan;95956.41;5049722;28;20204;-66
2023/10/03 02:27:49;;;;;;;12.43;7.78;;;;;;;11.63;nan;95958.19;5049618;28;20263;-65
2023/10/03 02:30:23;;;;;;;10.27;7.68;;;;;;;11.68;nan;95958.06;5049167;28;20203;-65
2023/10/03 02:32:52;;;;;;;11.63;7.15;;;;;;;11.76;nan;95961.28;5049220;28;20644;-66
2023/10/03 02:35:19;;;;;;;13.32;7.47;;;;;;;11.75;nan;95949.44;5049717;28;20231;-65
2023/10/03 02:37:47;;;;;;;12.00;7.20;;;;;;;11.66;nan;95954.72;5049467;28;20199;-64
2023/10/03 02:40:17;;;;;;;8.35;7.57;;;;;;;11.65;nan;95953.06;5050332;28;20286;-65
2023/10/03 02:42:44;;;;;;;12.45;7.28;;;;;;;11.63;nan;95957.38;5050822;28;20282;-65
2023/10/03 02:45:16;;;;;;;13.45;7.88;;;;;;;11.58;nan;95950.69;5051376;28;20214;-65
2023/10/03 02:47:44;;;;;;;14.07;7.55;;;;;;;11.56;nan;95954.13;5051199;28;20203;-66
2023/10/03 02:50:13;;;;;;;13.35;7.38;;;;;;;11.52;nan;95948.25;5051350;28;20242;-65
2023/10/03 02:52:40;;;;;;;17.27;8.75;;;;;;;11.53;nan;95952.47;5051152;28;20205;-65
2023/10/03 02:55:09;;;;;;;16.58;7.70;;;;;;;11.57;nan;95959.19;5050692;28;20265;-65
2023/10/03 02:57:38;;;;;;;15.30;7.85;;;;;;;11.55;nan;95958.38;5050452;28;20207;-64
2023/10/03 03:00:12;;;;;;;14.65;8.18;;;;;;;11.67;nan;95961.50;5050641;28;20684;-65
2023/10/03 03:02:41;;;;;;;14.63;8.38;;;;;;;11.58;nan;95965.94;5051028;28;20198;-64
2023/10/03 03:05:11;;;;;;;9.05;7.13;;;;;;;11.56;nan;95967.69;5055425;28;20199;-65
2023/10/03 03:07:37;;;;;;;13.50;7.95;;;;;;;11.50;nan;95959.34;5050867;28;20230;-65
2023/10/03 03:10:05;;;;;;;8.75;6.85;;;;;;;11.51;nan;95972.03;5051039;28;20238;-64
2023/10/03 03:12:35;;;;;;;11.27;8.13;;;;;;;11.49;nan;95970.41;5050627;28;20244;-65
2023/10/03 03:15:04;;;;;;;11.20;7.65;;;;;;;11.44;nan;95967.94;5051037;28;20568;-66
2023/10/03 03:17:31;;;;;;;14.10;7.65;;;;;;;11.51;nan;95976.31;5051178;28;20310;-65
2023/10/03 03:19:59;;;;;;;9.80;7.07;;;;;;;11.65;nan;95979.34;5050205;28;20588;-66
2023/10/03 03:22:27;;;;;;;8.90;7.43;;;;;;;11.69;nan;95980.13;5051186;28;20211;-66
2023/10/03 03:24:53;;;;;;;10.73;6.93;;;;;;;11.73;nan;95977.47;5050410;28;20257;-65
2023/10/03 03:27:25;;;;;;;12.80;7.80;;;;;;;11.71;nan;95980.94;5050809;28;20292;-65
2023/10/03 03:30:15;;;;;;;11.27;8.32;;;;;;;11.58;nan;95982.94;5050160;28;20285;-65
2023/10/03 03:32:42;;;;;;;12.63;8.38;;;;;;;11.63;nan;95980.28;5058041;28;20210;-65
2023/10/03 03:35:09;;;;;;;12.15;8.07;;;;;;;11.62;nan;95978.63;5050809;28;20286;-65
2023/10/03 03:37:38;;;;;;;12.77;7.28;;;;;;;11.76;nan;95976.56;5050566;28;20284;-65
2023/10/03 03:40:10;;;;;;;12.63;7.88;;;;;;;11.71;nan;95978.38;5050530;28;20201;-65
2023/10/03 03:42:37;;;;;;;12.52;8.10;;;;;;;11.63;nan;95980.28;5050751;28;20213;-65
2023/10/03 03:45:05;;;;;;;12.65;7.65;;;;;;;11.64;nan;95985.31;5043511;28;20233;-66
2023/10/03 03:47:33;;;;;;;12.30;7.90;;;;;;;11.65;nan;95988.69;5050412;28;20294;-65
2023/10/03 03:50:01;;;;;;;12.50;7.82;;;;;;;11.53;nan;95987.28;5050148;28;20286;-64
2023/10/03 03:52:32;;;;;;;13.80;8.38;;;;;;;11.39;nan;95987.56;5050572;28;20207;-68
2023/10/03 03:55:03;;;;;;;24.38;13.70;;;;;;;11.40;nan;95988.41;5050309;28;20207;-64
2023/10/03 03:57:30;;;;;;;32.47;17.35;;;;;;;11.47;nan;95995.88;5061621;28;20235;-66
2023/10/03 03:59:57;;;;;;;18.50;11.13;;;;;;;11.36;nan;95985.13;5050215;28;20214;-65
2023/10/03 04:02:24;;;;;;;14.55;8.13;;;;;;;11.51;nan;95996.66;5050474;28;20636;-65
2023/10/03 04:04:51;;;;;;;14.88;9.05;;;;;;;11.54;nan;95997.44;5050370;28;20247;-65
2023/10/03 04:07:17;;;;;;;15.30;8.45;;;;;;;11.50;nan;95990.75;5050094;28;20284;-66
2023/10/03 04:09:45;;;;;;;14.75;8.48;;;;;;;11.49;nan;95996.69;5050051;28;20290;-66
2023/10/03 04:12:14;;;;;;;15.20;8.70;;;;;;;11.43;nan;95988.34;5049869;28;20198;-67
2023/10/03 04:14:40;;;;;;;15.88;8.82;;;;;;;11.37;nan;95994.44;5050248;28;20210;-64
2023/10/03 04:17:08;;;;;;;15.48;8.23;;;;;;;11.39;nan;95992.66;5050232;28;20303;-66
2023/10/03 04:19:37;;;;;;;39.67;20.67;;;;;;;11.37;nan;95999.53;5047813;28;20199;-65
2023/10/03 04:22:04;;;;;;;38.70;20.88;;;;;;;11.42;nan;95997.69;5048371;28;20195;-65
2023/10/03 04:24:31;;;;;;;21.00;10.57;;;;;;;11.49;nan;95993.31;5048336;28;20256;-65
2023/10/03 04:26:58;;;;;;;15.73;9.50;;;;;;;11.60;nan;96001.56;5047598;28;20227;-68
2023/10/03 04:29:26;;;;;;;17.05;9.18;;;;;;;11.70;nan;95992.81;5048005;28;20214;-65
2023/10/03 04:31:53;;;;;;;15.32;9.07;;;;;;;11.82;nan;95991.75;5047828;28;20218;-65
2023/10/03 04:34:20;;;;;;;18.58;9.43;;;;;;;11.77;nan;95998.66;5048396;28;20203;-65
2023/10/03 04:36:48;;;;;;;13.40;8.68;;;;;;;11.89;nan;95985.63;5047621;28;20798;-66
2023/10/03 04:39:15;;;;;;;15.88;10.93;;;;;;;11.88;nan;95986.47;5048012;28;20285;-65
2023/10/03 04:41:43;;;;;;;27.85;15.65;;;;;;;11.95;nan;95985.47;5048720;28;20203;-65
2023/10/03 04:44:14;;;;;;;16.90;11.05;;;;;;;12.07;nan;95992.00;5049875;28;20227;-63
2023/10/03 04:46:43;;;;;;;14.13;10.38;;;;;;;12.11;nan;95994.44;5050120;28;20195;-64
2023/10/03 04:49:10;;;;;;;21.48;9.70;;;;;;;12.19;nan;95987.41;5049015;28;20199;-64
2023/10/03 04:51:37;;;;;;;17.38;10.18;;;;;;;12.26;nan;95988.94;5050242;28;20366;-65
2023/10/03 04:54:04;;;;;;;16.67;10.10;;;;;;;12.17;nan;95984.06;5049332;28;20234;-65
2023/10/03 04:56:31;;;;;;;17.90;9.98;;;;;;;12.30;nan;95987.16;5050157;28;20333;-65
2023/10/03 04:58:57;;;;;;;27.80;10.75;;;;;;;12.20;nan;95989.09;5049134;28;20245;-67
2023/10/03 05:01:24;;;;;;;22.10;10.05;;;;;;;12.31;nan;95991.38;5049664;28;20199;-66
2023/10/03 05:03:52;;;;;;;18.33;10.07;;;;;;;12.59;nan;95991.50;5049224;28;20203;-65
2023/10/03 05:06:19;;;;;;;25.40;12.93;;;;;;;12.60;nan;95988.06;5049976;28;20321;-66
2023/10/03 05:08:46;;;;;;;26.42;12.45;;;;;;;12.56;nan;95989.88;5049382;28;20199;-68
2023/10/03 05:11:14;;;;;;;19.85;11.45;;;;;;;12.87;nan;96005.16;5050044;28;20199;-64
2023/10/03 05:13:43;;;;;;;25.25;11.52;;;;;;;13.03;nan;96003.03;5048835;28;20226;-66
2023/10/03 05:16:09;;;;;;;20.95;9.85;;;;;;;13.22;nan;96008.47;5049054;28;20238;-68
2023/10/03 05:18:37;;;;;;;23.40;12.45;;;;;;;13.08;nan;96001.19;5049040;28;20661;-68
2023/10/03 05:21:05;;;;;;;30.10;10.60;;;;;;;13.24;nan;96002.44;5049697;28;20241;-66
2023/10/03 05:23:32;;;;;;;21.67;10.68;;;;;;;13.30;nan;95991.22;5049012;28;20199;-66
2023/10/03 05:26:02;;;;;;;17.02;9.55;;;;;;;13.51;nan;96007.63;5049350;28;20300;-68
2023/10/03 05:28:29;;;;;;;21.58;9.60;;;;;;;13.67;nan;96000.31;5052417;28;20264;-66
2023/10/03 05:30:58;;;;;;;25.92;11.60;;;;;;;13.74;nan;96002.66;5052655;28;20658;-67
2023/10/03 05:33:24;;;;;;;19.40;10.48;;;;;;;13.93;nan;96008.03;5052487;28;20238;-67
2023/10/03 05:35:51;;;;;;;19.80;10.40;;;;;;;14.17;nan;96007.22;5052091;28;20233;-67
2023/10/03 05:38:20;;;;;;;22.35;9.48;;;;;;;14.29;nan;96000.91;5052225;28;20223;-67
2023/10/03 05:40:47;;;;;;;19.17;10.18;;;;;;;14.44;nan;96002.97;5052851;28;20242;-65
2023/10/03 05:43:13;;;;;;;23.58;10.88;;;;;;;14.53;nan;96001.81;5052756;28;20232;-65
2023/10/03 05:45:40;;;;;;;20.88;9.57;;;;;;;14.72;nan;96005.41;5053162;28;20242;-67
2023/10/03 05:48:07;;;;;;;19.50;9.70;;;;;;;15.03;nan;96009.47;5051508;28;20842;-68
2023/10/03 05:50:34;;;;;;;23.33;10.02;;;;;;;15.21;nan;96014.75;5053219;28;20240;-66
2023/10/03 05:53:01;;;;;;;23.35;9.98;;;;;;;15.10;nan;96014.28;5052546;28;20252;-67
2023/10/03 05:55:29;;;;;;;18.98;12.18;;;;;;;14.98;nan;96007.91;5052334;28;20257;-67
2023/10/03 05:57:56;;;;;;;18.75;10.15;;;;;;;15.06;nan;96006.78;5052072;28;20227;-69
2023/10/03 06:00:22;;;;;;;25.98;10.88;;;;;;;15.01;nan;96006.13;5051990;28;20750;-66
2023/10/03 06:02:50;;;;;;;25.88;10.95;;;;;;;15.01;nan;96009.50;5052687;28;20269;-67
2023/10/03 06:05:17;;;;;;;21.20;11.70;;;;;;;14.95;nan;96004.59;5051949;28;20639;-68
2023/10/03 06:07:44;;;;;;;21.63;10.57;;;;;;;15.13;nan;96015.91;5052243;28;20754;-68
2023/10/03 06:10:13;;;;;;;14.45;9.27;;;;;;;15.30;nan;96008.47;5052360;28;20199;-66
2023/10/03 06:12:41;;;;;;;17.85;8.82;;;;;;;15.43;nan;96021.63;5052303;28;20198;-68
2023/10/03 06:15:12;;;;;;;11.20;8.55;;;;;;;15.54;nan;96012.66;5051627;28;20207;-65
2023/10/03 06:17:40;;;;;;;26.08;10.10;;;;;;;15.69;nan;96025.81;5052018;28;20276;-66
2023/10/03 06:20:07;;;;;;;16.27;8.93;;;;;;;15.81;nan;96020.22;5042268;28;20668;-67
2023/10/03 06:22:35;;;;;;;15.98;9.30;;;;;;;15.88;nan;96019.91;5050581;28;20235;-66
2023/10/03 06:25:01;;;;;;;25.58;9.95;;;;;;;16.29;nan;96013.16;5049520;28;20215;-67
2023/10/03 06:27:29;;;;;;;13.55;10.07;;;;;;;16.97;nan;96022.25;5050246;28;20227;-66
2023/10/03 06:29:57;;;;;;;22.17;9.50;;;;;;;18.19;nan;96016.69;5050060;28;20203;-66
2023/10/03 06:32:24;;;;;;;18.63;9.07;;;;;;;19.42;nan;96021.63;5050624;28;20219;-67
2023/10/03 06:34:51;;;;;;;12.45;8.20;;;;;;;20.08;nan;96013.72;5050670;28;20578;-66
2023/10/03 06:37:17;;;;;;;14.98;8.40;;;;;;;19.87;nan;96013.19;5050011;28;20308;-67
2023/10/03 06:39:44;;;;;;;13.88;10.10;;;;;;;19.54;nan;96021.03;5048310;28;20683;-66
2023/10/03 06:42:11;;;;;;;20.23;9.73;;;;;;;18.96;nan;96024.88;5050959;28;20195;-67
2023/10/03 06:44:36;;;;;;;17.13;10.65;;;;;;;18.54;nan;96037.28;5051422;28;20199;-67
2023/10/03 06:47:06;;;;;;;16.92;10.98;;;;;;;18.20;nan;96028.63;5051215;28;20637;-66
2023/10/03 06:49:33;;;;;;;12.15;9.68;;;;;;;17.91;nan;96039.47;5048545;28;20207;-67
2023/10/03 06:52:01;;;;;;;14.93;9.75;;;;;;;17.95;nan;96020.41;5051710;28;20746;-66
2023/10/03 06:54:29;;;;;;;13.38;8.43;;;;;;;18.33;nan;96029.69;5050595;28;20290;-66
2023/10/03 06:56:56;;;;;;;18.13;8.77;;;;;;;18.71;nan;96028.75;5051712;28;20254;-67
2023/10/03 06:59:23;;;;;;;13.82;8.35;;;;;;;19.01;nan;96028.03;5051192;28;20203;-67
2023/10/03 07:01:49;;;;;;;11.15;7.70;;;;;;;18.96;nan;96029.19;5051666;28;20203;-67
2023/10/03 07:04:17;;;;;;;21.13;9.48;;;;;;;19.06;nan;96034.69;5051119;28;20195;-67
2023/10/03 07:06:45;;;;;;;11.98;8.85;;;;;;;18.98;nan;96043.66;5051554;28;20256;-68
2023/10/03 07:09:13;;;;;;;18.02;10.18;;;;;;;18.79;nan;96048.06;5050956;28;20203;-65
2023/10/03 07:11:40;;;;;;;18.20;9.00;;;;;;;19.56;nan;96045.78;5051338;28;20630;-66
2023/10/03 07:14:12;;;;;;;14.82;8.65;;;;;;;20.72;nan;96047.09;5050668;28;20710;-67
2023/10/03 07:16:41;;;;;;;22.92;10.70;;;;;;;21.56;nan;96042.91;5050216;28;20207;-67
2023/10/03 07:19:09;;;;;;;17.50;9.07;;;;;;;21.81;nan;96039.66;5050932;28;20206;-66
2023/10/03 07:21:37;;;;;;;16.17;8.40;;;;;;;21.62;nan;96052.91;5050678;28;20203;-69
2023/10/03 07:24:05;;;;;;;15.93;7.80;;;;;;;22.04;nan;96048.59;5051200;28;20230;-68
2023/10/03 07:26:32;;;;;;;13.52;8.45;;;;;;;22.18;nan;96042.56;5050323;28;20207;-67
2023/10/03 07:29:00;;;;;;;10.88;7.22;;;;;;;21.94;nan;96039.72;5050862;28;20207;-66
2023/10/03 07:31:27;;;;;;;8.55;7.40;;;;;;;21.57;nan;96044.59;5050852;28;20692;-67
2023/10/03 07:33:55;;;;;;;12.10;7.05;;;;;;;21.02;nan;96045.31;5050469;28;20762;-66
2023/10/03 07:36:22;;;;;;;21.13;8.68;;;;;;;20.76;nan;96045.19;5050349;28;20207;-67
2023/10/03 07:38:50;;;;;;;13.00;6.90;;;;;;;20.77;nan;96044.25;5050779;28;20732;-69
2023/10/03 07:41:18;;;;;;;14.00;7.38;;;;;;;21.00;nan;96042.00;5049210;28;20211;-67
2023/10/03 07:43:47;;;;;;;16.35;7.32;;;;;;;21.38;nan;96038.88;5047712;28;21328;-68
2023/10/03 07:46:19;;;;;;;8.93;7.10;;;;;;;23.79;nan;96043.84;5049795;28;20199;-68
2023/10/03 07:48:46;;;;;;;10.43;6.90;;;;;;;27.53;nan;96030.19;5050063;28;20199;-70
2023/10/03 07:51:16;;;;;;;7.32;5.90;;;;;;;30.73;nan;96027.66;5049121;28;20207;-70
2023/10/03 07:53:42;;;;;;;7.53;6.57;;;;;;;32.88;nan;96018.59;5015120;28;20302;-70
2023/10/03 07:56:24;;;;;;;10.27;7.07;;;;;;;34.02;nan;96018.28;5024462;28;20215;-72
2023/10/03 07:58:53;;;;;;;9.70;7.65;;;;;;;33.91;nan;96022.13;5029188;28;20299;-70
2023/10/03 08:01:20;;;;;;;9.43;7.25;;;;;;;35.44;nan;96016.72;5039703;28;20272;-70
2023/10/03 08:03:47;;;;;;;11.05;7.53;;;;;;;35.57;nan;96010.81;5042043;28;20207;-71
2023/10/03 08:06:15;;;;;;;17.42;7.80;;;;;;;34.98;nan;96016.00;5044585;28;20341;-65
2023/10/03 08:08:41;;;;;;;11.90;8.65;;;;;;;34.71;nan;96008.63;5033359;28;20210;-68
2023/10/03 08:11:08;;;;;;;19.65;10.35;;;;;;;34.66;nan;96010.97;5034091;28;20280;-71
2023/10/03 08:13:39;;;;;;;15.32;11.00;;;;;;;35.42;nan;96013.44;5044482;28;20238;-69
2023/10/03 08:16:05;;;;;;;13.32;8.45;;;;;;;35.40;nan;96010.16;5045862;28;20683;-68
2023/10/03 08:18:36;;;;;;;8.73;7.45;;;;;;;34.24;nan;96006.94;5044268;28;20783;-69
2023/10/03 08:21:03;;;;;;;15.60;10.38;;;;;;;34.13;nan;96010.81;5043461;28;21250;-68
2023/10/03 08:23:32;;;;;;;14.63;8.88;;;;;;;34.31;nan;96009.75;5043447;28;20255;-69
2023/10/03 08:26:01;;;;;;;17.42;10.50;;;;;;;34.60;nan;96006.41;5043858;28;20264;-67
2023/10/03 08:28:29;;;;;;;9.25;6.90;;;;;;;34.08;nan;95996.50;5043231;28;20852;-73
2023/10/03 08:30:57;;;;;;;10.70;7.75;;;;;;;32.86;nan;95999.50;5043390;28;20633;-69
2023/10/03 08:33:24;;;;;;;18.67;8.88;;;;;;;31.26;nan;96007.53;5043451;28;20195;-68
2023/10/03 08:35:52;;;;;;;13.25;8.73;;;;;;;30.71;nan;95997.28;5043744;28;20303;-68
2023/10/03 08:38:19;;;;;;;17.83;8.07;;;;;;;30.68;nan;95998.44;5044695;28;20235;-69
2023/10/03 08:40:49;;;;;;;13.10;9.10;;;;;;;30.06;nan;95994.06;5045000;28;20222;-69
2023/10/03 08:43:16;;;;;;;16.52;8.70;;;;;;;29.69;nan;95988.91;5045282;28;20207;-69
2023/10/03 08:45:52;;;;;;;18.35;11.48;;;;;;;30.13;nan;95989.88;5045393;28;20246;-68
2023/10/03 08:48:25;;;;;;;12.75;7.80;;;;;;;29.97;nan;95981.81;5045466;28;20195;-69
2023/10/03 08:50:58;;;;;;;11.73;6.72;;;;;;;30.00;nan;95976.31;5044971;28;20305;-69
2023/10/03 08:53:28;;;;;;;27.08;7.80;;;;;;;29.20;nan;95982.19;5044439;28;20689;-68
2023/10/03 08:55:57;;;;;;;17.77;7.80;;;;;;;27.34;nan;95986.59;5045355;28;20199;-68
2023/10/03 08:58:26;;;;;;;11.73;7.15;;;;;;;26.56;nan;95978.41;5045100;28;20230;-70
2023/10/03 09:00:59;;;;;;;12.50;7.60;;;;;;;26.05;nan;95981.69;5043776;28;20206;-69
2023/10/03 09:03:42;;;;;;;11.98;7.20;;;;;;;25.59;nan;95974.06;5047929;28;20206;-69
2023/10/03 09:06:09;;;;;;;16.58;7.90;;;;;;;24.47;nan;95973.97;5049284;28;20234;-68
2023/10/03 09:08:36;;;;;;;13.85;8.20;;;;;;;24.06;nan;95975.19;5049136;28;20199;-68
2023/10/03 09:11:05;;;;;;;16.65;7.95;;;;;;;23.79;nan;95971.16;5048590;28;20665;-68
2023/10/03 09:13:38;;;;;;;15.77;6.75;;;;;;;23.46;nan;95969.16;5048968;28;20664;-67
2023/10/03 09:16:08;;;;;;;15.40;7.47;;;;;;;23.61;nan;95971.53;5048616;28;20222;-68
2023/10/03 09:18:41;;;;;;;10.57;7.30;;;;;;;23.29;nan;95978.09;5049267;28;20222;-70
2023/10/03 09:21:14;;;;;;;10.52;6.55;;;;;;;23.45;nan;95973.53;5048498;28;20203;-70
2023/10/03 09:23:59;;;;;;;12.40;7.47;;;;;;;23.39;nan;95969.59;5048777;28;20716;-68
2023/10/03 09:26:26;;;;;;;8.30;7.20;;;;;;;23.20;nan;95973.56;5048149;28;20585;-69
2023/10/03 09:28:53;;;;;;;14.45;7.43;;;;;;;22.32;nan;95978.56;5048642;28;20199;-67
2023/10/03 09:31:22;;;;;;;8.48;6.88;;;;;;;21.90;nan;95968.38;5048166;28;20647;-69
2023/10/03 09:33:50;;;;;;;11.55;7.57;;;;;;;21.83;nan;95967.94;5048571;28;20294;-68
2023/10/03 09:36:17;;;;;;;12.02;7.32;;;;;;;22.27;nan;95966.88;5048337;28;20203;-67
2023/10/03 09:38:44;;;;;;;8.18;7.35;;;;;;;22.62;nan;95961.94;5048293;28;20311;-69
2023/10/03 09:41:17;;;;;;;11.25;7.28;;;;;;;22.85;nan;95952.63;5048475;28;20261;-69
2023/10/03 09:43:49;;;;;;;10.45;7.63;;;;;;;22.94;nan;95957.22;5048191;28;20226;-69
2023/10/03 09:46:23;;;;;;;15.80;7.25;;;;;;;22.58;nan;95952.69;5048245;28;20672;-69
2023/10/03 09:48:54;;;;;;;12.93;8.00;;;;;;;21.97;nan;95954.13;5047981;28;20194;-68
2023/10/03 09:51:36;;;;;;;13.52;8.13;;;;;;;21.81;nan;95956.84;5047922;28;20207;-69
2023/10/03 09:54:07;;;;;;;10.48;7.15;;;;;;;22.13;nan;95952.22;5042826;28;20284;-68
2023/10/03 09:56:36;;;;;;;17.00;7.18;;;;;;;22.55;nan;95950.31;5047899;28;20293;-68
2023/10/03 09:59:05;;;;;;;12.70;7.38;;;;;;;22.95;nan;95944.16;5048061;28;20316;-68
2023/10/03 10:01:34;;;;;;;11.82;7.20;;;;;;;23.33;nan;95948.44;5047545;28;20294;-70
2023/10/03 10:04:07;;;;;;;16.05;8.68;;;;;;;23.65;nan;95931.47;5047800;28;20679;-69
2023/10/03 10:06:47;;;;;;;8.70;6.38;;;;;;;23.84;nan;95941.34;5047960;28;20649;-68
2023/10/03 10:09:27;;;;;;;9.55;7.15;;;;;;;23.94;nan;95933.72;5047025;28;20290;-68
2023/10/03 10:12:18;;;;;;;12.77;6.72;;;;;;;23.13;nan;95915.28;5048245;28;20264;-68
2023/10/03 10:15:26;;;;;;;12.10;7.38;;;;;;;22.67;nan;95926.19;5047147;28;20286;-70
2023/10/03 10:17:55;;;;;;;10.98;6.82;;;;;;;22.57;nan;95922.53;5005499;28;20231;-70
2023/10/03 10:20:37;;;;;;;16.50;7.45;;;;;;;22.44;nan;95916.53;5003674;28;20675;-70
2023/10/03 10:23:20;;;;;;;18.20;7.45;;;;;;;22.81;nan;95910.53;5028808;28;20203;-68
2023/10/03 10:25:57;;;;;;;12.02;6.90;;;;;;;23.10;nan;95912.91;5045840;28;20503;-68
2023/10/03 10:28:31;;;;;;;9.27;6.75;;;;;;;23.28;nan;95901.22;5046572;28;20707;-68
2023/10/03 10:31:21;;;;;;;10.60;7.50;;;;;;;23.33;nan;95910.34;5045251;28;20219;-68
2023/10/03 10:33:49;;;;;;;15.80;7.03;;;;;;;23.47;nan;95904.19;5045339;28;20203;-69
2023/10/03 10:36:20;;;;;;;7.95;6.40;;;;;;;23.64;nan;95903.00;5047975;28;20210;-68
2023/10/03 10:38:53;;;;;;;8.48;7.38;;;;;;;23.72;nan;95893.75;5046573;28;20720;-68
2023/10/03 10:41:27;;;;;;;16.60;8.05;;;;;;;23.93;nan;95882.75;5047525;28;20195;-68
2023/10/03 10:44:08;;;;;;;18.90;7.65;;;;;;;24.06;nan;95886.06;5046919;28;20672;-68
2023/10/03 10:46:38;;;;;;;14.93;7.32;;;;;;;23.89;nan;95889.09;5047696;28;20209;-68
2023/10/03 10:49:06;;;;;;;9.90;7.25;;;;;;;23.77;nan;95885.59;5046973;28;20252;-68
2023/10/03 10:51:36;;;;;;;13.50;7.93;;;;;;;23.83;nan;95881.75;5046763;28;20195;-67
2023/10/03 10:54:04;;;;;;;10.18;7.82;;;;;;;23.67;nan;95885.47;5046903;28;20294;-70
2023/10/03 10:56:32;;;;;;;12.43;7.70;;;;;;;23.45;nan;95872.34;5046991;28;20209;-68
2023/10/03 10:59:05;;;;;;;12.30;7.93;;;;;;;23.15;nan;95871.94;5046954;28;20215;-68
2023/10/03 11:01:39;;;;;;;18.13;8.20;;;;;;;23.02;nan;95872.78;5045981;28;20227;-68
2023/10/03 11:04:06;;;;;;;9.13;7.85;;;;;;;23.04;nan;95860.53;5046083;28;20286;-68
2023/10/03 11:06:33;;;;;;;12.20;8.27;;;;;;;23.04;nan;95859.69;5046726;28;20207;-68
2023/10/03 11:09:01;;;;;;;7.88;7.18;;;;;;;23.24;nan;95863.50;5046072;28;20265;-67
2023/10/03 11:11:36;;;;;;;13.65;7.90;;;;;;;23.42;nan;95857.00;5046373;28;20276;-69
2023/10/03 11:14:02;;;;;;;9.63;8.10;;;;;;;23.63;nan;95863.25;5046577;28;20215;-68
2023/10/03 11:16:31;;;;;;;15.65;9.07;;;;;;;23.81;nan;95849.88;5046760;28;20216;-68
2023/10/03 11:19:00;;;;;;;12.45;8.07;;;;;;;23.94;nan;95848.88;5045226;28;20215;-69
2023/10/03 11:21:30;;;;;;;12.48;8.18;;;;;;;23.86;nan;95842.59;5045633;28;20744;-68
2023/10/03 11:24:14;;;;;;;13.07;8.60;;;;;;;23.88;nan;95840.69;5046328;28;20203;-69
2023/10/03 11:26:46;;;;;;;9.32;6.70;;;;;;;23.86;nan;95832.19;5046700;28;20234;-68
2023/10/03 11:29:14;;;;;;;13.75;7.38;;;;;;;23.88;nan;95827.72;5045910;28;20199;-68
2023/10/03 11:31:42;;;;;;;15.73;7.63;;;;;;;23.85;nan;95835.72;5046318;28;20309;-67
2023/10/03 11:34:09;;;;;;;10.23;8.00;;;;;;;23.85;nan;95825.34;5046011;28;20211;-69
2023/10/03 11:36:43;;;;;;;13.32;8.57;;;;;;;23.84;nan;95819.34;5046830;28;20203;-69
2023/10/03 11:39:12;;;;;;;9.40;7.93;;;;;;;23.87;nan;95818.28;5045603;28;20219;-69
2023/10/03 11:41:41;;;;;;;14.90;8.48;;;;;;;23.60;nan;95810.75;5046860;28;20290;-68
2023/10/03 11:44:20;;;;;;;17.40;8.20;;;;;;;23.46;nan;95814.34;5046446;28;20215;-68
2023/10/03 11:46:47;;;;;;;14.13;7.85;;;;;;;23.44;nan;95808.44;5045762;28;20252;-68
2023/10/03 11:49:15;;;;;;;12.02;7.55;;;;;;;23.38;nan;95812.28;5045517;28;20214;-68
2023/10/03 11:51:43;;;;;;;9.75;7.30;;;;;;;23.34;nan;95813.44;5044304;28;20199;-68